createdAt,value
2022-09-14T00:01:27.103Z,16.50
2022-09-14T00:04:29.768Z,16.50
2022-09-14T00:06:56.553Z,16.50
2022-09-14T00:09:24.964Z,16.50
2022-09-14T00:11:52.348Z,16.50
2022-09-14T00:14:19.931Z,16.40
2022-09-14T00:16:47.449Z,16.40
2022-09-14T00:19:28.875Z,16.40
2022-09-14T00:21:57.787Z,16.40
2022-09-14T00:24:26.276Z,16.50
2022-09-14T00:26:53.881Z,16.40
2022-09-14T00:29:20.826Z,16.40
2022-09-14T00:31:48.006Z,16.40
2022-09-14T00:34:16.991Z,16.40
2022-09-14T00:36:47.382Z,16.40
2022-09-14T00:39:14.930Z,16.40
2022-09-14T00:41:46.827Z,16.40
2022-09-14T00:44:18.747Z,16.40
2022-09-14T00:46:51.223Z,16.40
2022-09-14T00:49:23.327Z,16.40
2022-09-14T00:51:59.176Z,16.40
2022-09-14T00:54:26.710Z,16.40
2022-09-14T00:56:54.750Z,16.40
2022-09-14T00:59:26.780Z,16.50
2022-09-14T01:01:54.128Z,16.40
2022-09-14T01:04:22.155Z,16.40
2022-09-14T01:07:09.184Z,16.40
2022-09-14T01:09:43.525Z,16.40
2022-09-14T01:12:29.390Z,16.40
2022-09-14T01:15:08.490Z,16.30
2022-09-14T01:17:44.098Z,16.30
2022-09-14T01:20:19.773Z,16.30
2022-09-14T01:22:58.835Z,16.30
2022-09-14T01:25:59.069Z,16.30
2022-09-14T01:28:47.270Z,16.30
2022-09-14T01:31:21.408Z,16.30
2022-09-14T01:34:08.497Z,16.30
2022-09-14T01:36:38.681Z,16.40
2022-09-14T01:39:07.562Z,16.40
2022-09-14T01:41:35.338Z,16.40
2022-09-14T01:44:27.352Z,16.40
2022-09-14T01:46:57.320Z,16.30
2022-09-14T01:49:27.540Z,16.30
2022-09-14T01:52:04.307Z,16.30
2022-09-14T01:54:43.442Z,16.30
2022-09-14T01:57:29.908Z,16.30
2022-09-14T02:00:01.757Z,16.30
2022-09-14T02:02:38.414Z,16.40
2022-09-14T02:05:19.752Z,16.80
2022-09-14T02:07:46.955Z,16.30
2022-09-14T02:10:16.428Z,16.30
2022-09-14T02:12:45.035Z,16.30
2022-09-14T02:15:14.544Z,16.30
2022-09-14T02:17:41.865Z,16.30
2022-09-14T02:20:29.177Z,16.30
2022-09-14T02:22:56.234Z,16.20
2022-09-14T02:25:23.363Z,16.20
2022-09-14T02:27:50.452Z,16.20
2022-09-14T02:30:55.242Z,16.20
2022-09-14T02:33:33.916Z,16.20
2022-09-14T02:36:08.001Z,16.20
2022-09-14T02:38:45.575Z,16.20
2022-09-14T02:41:22.842Z,16.30
2022-09-14T02:44:15.097Z,16.20
2022-09-14T02:47:07.698Z,16.20
2022-09-14T02:50:12.864Z,16.20
2022-09-14T02:52:48.630Z,16.20
2022-09-14T02:55:21.607Z,16.10
2022-09-14T02:58:08.391Z,16.10
2022-09-14T03:00:46.554Z,16.10
2022-09-14T03:03:18.658Z,16.10
2022-09-14T03:05:45.995Z,16.10
2022-09-14T03:08:13.131Z,16.10
2022-09-14T03:10:43.786Z,16.10
2022-09-14T03:13:11.739Z,16.10
2022-09-14T03:15:38.863Z,16.10
2022-09-14T03:18:09.983Z,16.10
2022-09-14T03:20:39.467Z,16.10
2022-09-14T03:23:07.259Z,16.10
2022-09-14T03:25:41.413Z,16.10
2022-09-14T03:28:09.421Z,16.10
2022-09-14T03:30:36.708Z,16.10
2022-09-14T03:33:04.240Z,16.10
2022-09-14T03:35:31.919Z,16.10
2022-09-14T03:37:59.798Z,16.10
2022-09-14T03:40:27.472Z,16.10
2022-09-14T03:42:54.583Z,16.10
2022-09-14T03:45:22.069Z,16.10
2022-09-14T03:47:49.539Z,16.10
2022-09-14T03:50:19.289Z,16.10
2022-09-14T03:52:46.416Z,16.00
2022-09-14T03:55:13.521Z,16.00
2022-09-14T03:57:40.367Z,16.00
2022-09-14T04:00:08.537Z,16.00
2022-09-14T04:02:35.693Z,16.00
2022-09-14T04:05:02.605Z,16.00
2022-09-14T04:07:36.835Z,15.90
2022-09-14T04:10:05.668Z,15.90
2022-09-14T04:12:39.696Z,15.90
2022-09-14T04:15:08.026Z,15.90
2022-09-14T04:17:35.098Z,15.90
2022-09-14T04:20:02.026Z,15.90
2022-09-14T04:22:34.676Z,15.90
2022-09-14T04:25:01.549Z,15.90
2022-09-14T04:27:29.727Z,15.90
2022-09-14T04:29:56.791Z,15.90
2022-09-14T04:32:23.601Z,15.90
2022-09-14T04:34:50.649Z,15.90
2022-09-14T04:37:17.439Z,15.90
2022-09-14T04:39:44.477Z,15.80
2022-09-14T04:42:11.349Z,15.90
2022-09-14T04:44:38.132Z,15.90
2022-09-14T04:49:32.229Z,15.90
2022-09-14T04:51:59.026Z,15.90
2022-09-14T04:54:25.848Z,15.90
2022-09-14T04:56:52.716Z,16.00
2022-09-14T04:59:19.500Z,16.00
2022-09-14T05:01:47.980Z,16.00
2022-09-14T05:04:15.111Z,16.00
2022-09-14T05:06:43.256Z,16.00
2022-09-14T05:09:18.597Z,16.00
2022-09-14T05:11:46.023Z,16.00
2022-09-14T05:14:14.046Z,16.10
2022-09-14T05:16:42.932Z,16.00
2022-09-14T05:19:13.926Z,16.10
2022-09-14T05:21:41.076Z,16.00
2022-09-14T05:24:12.993Z,16.10
2022-09-14T05:26:39.881Z,16.10
2022-09-14T05:29:06.984Z,16.10
2022-09-14T05:31:34.102Z,16.10
2022-09-14T05:34:01.110Z,16.10
2022-09-14T05:36:27.876Z,16.10
2022-09-14T05:38:54.839Z,16.10
2022-09-14T05:41:21.681Z,16.20
2022-09-14T05:43:48.603Z,16.20
2022-09-14T05:46:17.655Z,16.20
2022-09-14T05:48:44.589Z,16.30
2022-09-14T05:51:17.283Z,16.30
2022-09-14T05:53:51.948Z,16.30
2022-09-14T05:56:19.825Z,16.40
2022-09-14T05:58:47.174Z,16.40
2022-09-14T06:01:18.501Z,16.40
2022-09-14T06:03:46.775Z,16.50
2022-09-14T06:06:15.580Z,16.50
2022-09-14T06:08:43.087Z,16.50
2022-09-14T06:11:16.091Z,16.50
2022-09-14T06:13:43.560Z,16.50
2022-09-14T06:16:14.353Z,16.50
2022-09-14T06:18:42.498Z,16.60
2022-09-14T06:21:10.831Z,16.60
2022-09-14T06:23:38.549Z,16.60
2022-09-14T06:26:06.230Z,16.60
2022-09-14T06:28:34.362Z,16.60
2022-09-14T06:31:04.370Z,16.60
2022-09-14T06:33:32.054Z,16.60
2022-09-14T06:36:01.407Z,16.60
2022-09-14T06:38:29.153Z,16.60
2022-09-14T06:40:57.987Z,16.70
2022-09-14T06:43:26.152Z,16.70
2022-09-14T06:46:06.376Z,16.70
2022-09-14T06:49:04.639Z,16.80
2022-09-14T06:51:34.714Z,16.80
2022-09-14T06:54:02.437Z,16.80
2022-09-14T06:56:32.744Z,16.90
2022-09-14T06:59:00.002Z,16.90
2022-09-14T07:01:27.863Z,17.00
2022-09-14T07:03:54.695Z,17.00
2022-09-14T07:06:24.274Z,17.00
2022-09-14T07:08:52.457Z,17.00
2022-09-14T07:11:21.724Z,17.00
2022-09-14T07:13:48.624Z,17.00
2022-09-14T07:16:16.015Z,17.00
2022-09-14T07:18:43.150Z,17.00
2022-09-14T07:21:13.087Z,17.10
2022-09-14T07:23:42.255Z,17.10
2022-09-14T07:26:30.664Z,17.10
2022-09-14T07:29:03.761Z,17.10
2022-09-14T07:31:40.141Z,17.10
2022-09-14T07:34:07.254Z,17.00
2022-09-14T07:36:36.618Z,17.10
2022-09-14T07:39:06.956Z,17.10
2022-09-14T07:41:34.828Z,17.10
2022-09-14T07:44:04.131Z,17.10
2022-09-14T07:46:37.146Z,17.20
2022-09-14T07:49:05.072Z,17.20
2022-09-14T07:51:34.726Z,17.20
2022-09-14T07:54:01.796Z,17.20
2022-09-14T07:56:29.988Z,17.20
2022-09-14T07:59:11.973Z,17.20
2022-09-14T08:01:46.879Z,17.10
2022-09-14T08:04:14.187Z,17.10
2022-09-14T08:06:41.115Z,17.20
2022-09-14T08:09:08.944Z,17.20
2022-09-14T08:11:38.178Z,17.20
2022-09-14T08:14:14.277Z,17.20
2022-09-14T08:16:41.806Z,17.30
2022-09-14T08:19:14.154Z,17.40
2022-09-14T08:21:46.252Z,17.40
2022-09-14T08:24:16.041Z,17.40
2022-09-14T08:26:42.881Z,17.50
2022-09-14T08:29:09.744Z,17.50
2022-09-14T08:31:38.961Z,17.70
2022-09-14T08:34:06.946Z,17.80
2022-09-14T08:36:36.934Z,18.00
2022-09-14T08:39:11.459Z,18.20
2022-09-14T08:41:45.175Z,18.20
2022-09-14T08:44:11.949Z,18.40
2022-09-14T08:46:57.181Z,18.60
2022-09-14T08:49:43.017Z,18.70
2022-09-14T08:52:30.994Z,18.60
2022-09-14T08:55:01.565Z,18.60
2022-09-14T08:58:01.335Z,18.60
2022-09-14T09:01:09.631Z,18.70
2022-09-14T09:04:27.872Z,18.70
2022-09-14T09:07:21.261Z,18.70
2022-09-14T09:09:54.136Z,18.70
2022-09-14T09:12:33.267Z,18.60
2022-09-14T09:15:03.303Z,18.50
2022-09-14T09:17:43.587Z,18.40
2022-09-14T09:20:18.178Z,18.40
2022-09-14T09:22:52.908Z,18.30
2022-09-14T09:25:27.228Z,18.50
2022-09-14T09:28:02.893Z,18.60
2022-09-14T09:30:30.277Z,18.80
2022-09-14T09:32:57.801Z,18.80
2022-09-14T09:35:24.993Z,19.00
2022-09-14T09:37:51.817Z,19.10
2022-09-14T09:40:37.709Z,19.30
2022-09-14T09:43:09.065Z,19.40
2022-09-14T09:46:00.673Z,19.40
2022-09-14T09:48:47.182Z,19.30
2022-09-14T09:51:26.952Z,19.30
2022-09-14T09:54:03.325Z,19.30
2022-09-14T09:56:33.518Z,19.30
2022-09-14T09:59:00.366Z,19.30
2022-09-14T10:01:33.991Z,19.40
2022-09-14T10:04:17.380Z,19.30
2022-09-14T10:06:45.495Z,19.20
2022-09-14T10:09:23.432Z,19.20
2022-09-14T10:12:02.157Z,19.00
2022-09-14T10:14:32.118Z,19.10
2022-09-14T10:17:21.177Z,19.00
2022-09-14T10:19:49.875Z,19.10
2022-09-14T10:22:32.517Z,19.10
2022-09-14T10:25:20.859Z,19.10
2022-09-14T10:27:56.776Z,19.10
2022-09-14T10:30:34.096Z,19.10
2022-09-14T10:33:03.925Z,19.10
2022-09-14T10:36:05.381Z,19.10
2022-09-14T10:39:09.076Z,19.30
2022-09-14T10:42:13.246Z,19.30
2022-09-14T10:44:58.501Z,19.20
2022-09-14T10:47:44.085Z,19.40
2022-09-14T10:50:33.617Z,19.50
2022-09-14T10:53:31.450Z,19.60
2022-09-14T10:56:37.886Z,19.60
2022-09-14T10:59:28.217Z,19.80
2022-09-14T11:02:16.838Z,19.90
2022-09-14T11:05:20.277Z,20.00
2022-09-14T11:07:56.095Z,20.50
2022-09-14T11:10:43.948Z,20.70
2022-09-14T11:13:37.602Z,20.90
2022-09-14T11:16:32.878Z,20.90
2022-09-14T11:19:30.303Z,20.90
2022-09-14T11:22:30.918Z,20.90
2022-09-14T11:25:02.410Z,20.60
2022-09-14T11:27:49.171Z,20.70
2022-09-14T11:30:19.839Z,20.60
2022-09-14T11:33:07.953Z,20.50
2022-09-14T11:35:48.336Z,20.50
2022-09-14T11:38:26.133Z,20.50
2022-09-14T11:41:13.158Z,20.60
2022-09-14T11:43:51.060Z,20.70
2022-09-14T11:46:34.578Z,20.80
2022-09-14T11:49:19.669Z,21.00
2022-09-14T11:51:55.720Z,21.10
2022-09-14T11:54:24.248Z,21.10
2022-09-14T11:56:55.878Z,21.10
2022-09-14T11:59:44.065Z,21.10
2022-09-14T12:02:23.225Z,21.10
2022-09-14T12:05:05.655Z,21.10
2022-09-14T12:07:47.507Z,21.50
2022-09-14T12:10:14.571Z,21.70
2022-09-14T12:12:55.171Z,21.90
2022-09-14T12:15:28.902Z,22.20
2022-09-14T12:18:08.086Z,22.90
2022-09-14T12:20:38.407Z,23.30
2022-09-14T12:23:05.155Z,24.10
2022-09-14T12:25:32.212Z,24.90
2022-09-14T12:27:59.190Z,25.20
2022-09-14T12:30:41.476Z,24.80
2022-09-14T12:33:31.202Z,24.70
2022-09-14T12:36:11.263Z,24.70
2022-09-14T12:38:38.282Z,24.40
2022-09-14T12:41:11.362Z,24.60
2022-09-14T12:43:40.955Z,24.50
2022-09-14T12:46:20.092Z,24.40
2022-09-14T12:48:51.436Z,24.00
2022-09-14T12:51:36.722Z,23.80
2022-09-14T12:54:11.284Z,23.80
2022-09-14T12:56:52.953Z,23.90
2022-09-14T12:59:58.285Z,23.70
2022-09-14T13:02:50.512Z,23.40
2022-09-14T13:05:24.667Z,23.10
2022-09-14T13:07:53.399Z,22.90
2022-09-14T13:10:33.914Z,22.70
2022-09-14T13:13:02.650Z,22.50
2022-09-14T13:15:36.916Z,22.30
2022-09-14T13:18:12.846Z,22.10
2022-09-14T13:20:40.493Z,22.00
2022-09-14T13:23:21.141Z,21.70
2022-09-14T13:25:49.044Z,21.70
2022-09-14T13:28:21.590Z,21.50
2022-09-14T13:30:57.540Z,21.40
2022-09-14T13:33:24.669Z,21.30
2022-09-14T13:36:02.908Z,21.00
2022-09-14T13:38:36.587Z,21.00
2022-09-14T13:41:10.614Z,21.00
2022-09-14T13:43:37.742Z,21.10
2022-09-14T13:46:08.207Z,21.10
2022-09-14T13:48:40.363Z,21.00
2022-09-14T13:51:08.795Z,21.00
2022-09-14T13:53:49.571Z,21.00
2022-09-14T13:56:17.682Z,21.00
2022-09-14T13:58:45.186Z,20.90
2022-09-14T14:01:12.533Z,20.80
2022-09-14T14:03:50.148Z,20.80
2022-09-14T14:06:32.346Z,20.80
2022-09-14T14:09:06.832Z,20.70
2022-09-14T14:11:45.828Z,20.70
2022-09-14T14:14:19.907Z,20.70
2022-09-14T14:17:11.692Z,20.70
2022-09-14T14:19:40.526Z,20.70
2022-09-14T14:22:21.207Z,20.60
2022-09-14T14:25:12.427Z,20.60
2022-09-14T14:27:46.243Z,20.60
2022-09-14T14:30:13.424Z,20.70
2022-09-14T14:32:40.500Z,20.70
2022-09-14T14:35:20.052Z,20.70
2022-09-14T14:37:47.913Z,20.60
2022-09-14T14:40:16.439Z,20.50
2022-09-14T14:42:44.292Z,20.50
2022-09-14T14:45:18.667Z,20.30
2022-09-14T14:47:50.683Z,20.20
2022-09-14T14:50:22.055Z,20.10
2022-09-14T14:52:49.387Z,20.00
2022-09-14T14:55:16.210Z,20.00
2022-09-14T14:57:43.001Z,20.00
2022-09-14T15:00:19.153Z,20.00
2022-09-14T15:02:46.442Z,20.00
2022-09-14T15:05:13.731Z,19.90
2022-09-14T15:07:40.966Z,19.90
2022-09-14T15:10:08.800Z,19.90
2022-09-14T15:12:35.749Z,19.90
2022-09-14T15:15:02.907Z,19.80
2022-09-14T15:17:29.698Z,19.80
2022-09-14T15:19:57.307Z,19.80
2022-09-14T15:22:24.207Z,19.80
2022-09-14T15:24:51.014Z,19.70
2022-09-14T15:27:17.884Z,19.70
2022-09-14T15:29:44.688Z,19.70
2022-09-14T15:32:11.783Z,19.60
2022-09-14T15:34:39.758Z,19.50
2022-09-14T15:37:06.710Z,19.50
2022-09-14T15:39:34.073Z,19.40
2022-09-14T15:42:01.012Z,19.30
2022-09-14T15:44:28.064Z,19.20
2022-09-14T15:46:56.439Z,19.10
2022-09-14T15:49:25.024Z,19.10
2022-09-14T15:51:54.372Z,19.10
2022-09-14T15:54:25.497Z,19.00
2022-09-14T15:56:54.890Z,19.00
2022-09-14T15:59:22.551Z,19.00
2022-09-14T16:01:49.407Z,19.00
2022-09-14T16:04:16.583Z,19.00
2022-09-14T16:06:43.826Z,18.90
2022-09-14T16:09:11.898Z,19.00
2022-09-14T16:11:39.775Z,19.00
2022-09-14T16:14:08.488Z,19.00
2022-09-14T16:16:36.545Z,19.00
2022-09-14T16:19:21.695Z,19.00
2022-09-14T16:21:52.941Z,19.00
2022-09-14T16:24:21.834Z,19.00
2022-09-14T16:26:48.644Z,19.00
2022-09-14T16:29:17.503Z,19.00
2022-09-14T16:31:47.000Z,19.00
2022-09-14T16:34:34.440Z,18.90
2022-09-14T16:37:01.289Z,18.90
2022-09-14T16:39:31.927Z,18.90
2022-09-14T16:41:59.978Z,18.90
2022-09-14T16:44:28.352Z,18.90
2022-09-14T16:46:57.879Z,18.90
2022-09-14T16:49:27.827Z,18.80
2022-09-14T16:51:56.134Z,18.80
2022-09-14T16:54:24.489Z,18.80
2022-09-14T16:56:51.764Z,18.70
2022-09-14T16:59:20.770Z,18.70
2022-09-14T17:01:53.529Z,18.60
2022-09-14T17:04:22.153Z,18.60
2022-09-14T17:06:50.637Z,18.60
2022-09-14T17:09:23.442Z,18.50
2022-09-14T17:11:50.548Z,18.50
2022-09-14T17:14:20.500Z,18.50
2022-09-14T17:16:47.868Z,18.40
2022-09-14T17:19:15.421Z,18.40
2022-09-14T17:21:43.930Z,18.30
2022-09-14T17:24:11.530Z,18.30
2022-09-14T17:26:38.778Z,18.20
2022-09-14T17:29:06.873Z,18.20
2022-09-14T17:31:37.103Z,18.10
2022-09-14T17:34:06.101Z,18.10
2022-09-14T17:36:33.340Z,18.10
2022-09-14T17:39:09.233Z,18.10
2022-09-14T17:41:39.167Z,18.10
2022-09-14T17:44:07.430Z,18.10
2022-09-14T17:46:35.339Z,18.00
2022-09-14T17:49:04.859Z,18.00
2022-09-14T17:51:32.967Z,18.00
2022-09-14T17:54:01.332Z,18.00
2022-09-14T17:56:29.934Z,18.00
2022-09-14T17:59:12.474Z,18.00
2022-09-14T18:01:40.667Z,18.00
2022-09-14T18:04:14.324Z,18.00
2022-09-14T18:06:43.789Z,18.00
2022-09-14T18:09:20.089Z,18.00
2022-09-14T18:11:47.847Z,18.00
2022-09-14T18:14:15.281Z,18.00
2022-09-14T18:16:43.313Z,17.90
2022-09-14T18:19:10.813Z,18.00
2022-09-14T18:21:39.000Z,18.00
2022-09-14T18:24:06.517Z,18.00
2022-09-14T18:26:33.642Z,18.00
2022-09-14T18:29:00.499Z,18.00
2022-09-14T18:31:28.152Z,18.00
2022-09-14T18:33:59.397Z,18.00
2022-09-14T18:36:29.181Z,18.00
2022-09-14T18:38:56.555Z,18.00
2022-09-14T18:41:23.473Z,18.00
2022-09-14T18:43:52.093Z,18.00
2022-09-14T18:46:19.548Z,18.00
2022-09-14T18:48:50.147Z,18.00
2022-09-14T18:51:17.133Z,18.00
2022-09-14T18:53:44.140Z,17.90
2022-09-14T18:56:13.464Z,18.00
2022-09-14T18:58:44.913Z,17.90
2022-09-14T19:01:14.070Z,18.00
2022-09-14T19:03:42.825Z,17.90
2022-09-14T19:06:13.119Z,17.90
2022-09-14T19:08:40.814Z,17.90
2022-09-14T19:11:13.357Z,17.90
2022-09-14T19:13:40.719Z,17.90
2022-09-14T19:16:16.391Z,17.90
2022-09-14T19:18:44.559Z,17.90
2022-09-14T19:21:16.278Z,17.90
2022-09-14T19:23:43.359Z,17.90
2022-09-14T19:26:16.535Z,17.90
2022-09-14T19:28:44.626Z,17.90
2022-09-14T19:31:13.586Z,17.90
2022-09-14T19:33:45.076Z,17.90
2022-09-14T19:36:23.325Z,17.80
2022-09-14T19:38:51.849Z,17.90
2022-09-14T19:41:19.492Z,17.80
2022-09-14T19:43:46.487Z,17.70
2022-09-14T19:46:16.280Z,17.70
2022-09-14T19:48:43.237Z,17.60
2022-09-14T19:51:15.444Z,17.60
2022-09-14T19:53:50.194Z,17.60
2022-09-14T19:56:22.659Z,17.60
2022-09-14T19:58:52.325Z,17.50
2022-09-14T20:01:21.144Z,17.40
2022-09-14T20:03:49.097Z,17.30
2022-09-14T20:06:23.509Z,17.30
2022-09-14T20:08:57.185Z,17.30
2022-09-14T20:11:26.271Z,17.30
2022-09-14T20:13:57.787Z,17.30
2022-09-14T20:16:28.224Z,17.30
2022-09-14T20:18:56.900Z,17.30
2022-09-14T20:21:25.957Z,17.30
2022-09-14T20:24:14.625Z,17.40
2022-09-14T20:26:42.865Z,17.40
2022-09-14T20:29:09.921Z,17.40
2022-09-14T20:31:36.753Z,17.40
2022-09-14T20:34:04.434Z,17.30
2022-09-14T20:36:32.441Z,17.30
2022-09-14T20:39:02.390Z,17.30
2022-09-14T20:41:33.275Z,17.30
2022-09-14T20:44:00.621Z,17.40
2022-09-14T20:46:34.847Z,17.30
2022-09-14T20:49:04.262Z,17.40
2022-09-14T20:51:31.623Z,17.40
2022-09-14T20:53:58.633Z,17.30
2022-09-14T20:56:28.550Z,17.20
2022-09-14T20:58:57.996Z,17.10
2022-09-14T21:01:27.179Z,17.00
2022-09-14T21:03:57.379Z,17.00
2022-09-14T21:06:33.766Z,17.00
2022-09-14T21:09:01.857Z,16.90
2022-09-14T21:11:29.041Z,16.90
2022-09-14T21:13:57.680Z,17.00
2022-09-14T21:16:31.420Z,17.00
2022-09-14T21:19:07.160Z,17.10
2022-09-14T21:21:37.282Z,17.10
2022-09-14T21:24:07.247Z,17.10
2022-09-14T21:26:40.533Z,17.10
2022-09-14T21:29:16.128Z,17.10
2022-09-14T21:31:43.025Z,17.10
2022-09-14T21:34:11.090Z,17.10
2022-09-14T21:36:43.391Z,17.10
2022-09-14T21:39:21.624Z,17.10
2022-09-14T21:41:55.975Z,17.10
2022-09-14T21:44:33.275Z,17.10
2022-09-14T21:47:01.693Z,17.10
2022-09-14T21:49:28.616Z,17.00
2022-09-14T21:51:55.468Z,17.00
2022-09-14T21:54:28.522Z,17.00
2022-09-14T21:56:55.502Z,17.00
2022-09-14T21:59:23.129Z,17.00
2022-09-14T22:01:50.281Z,17.00
2022-09-14T22:04:19.641Z,17.00
2022-09-14T22:06:47.165Z,17.10
2022-09-14T22:09:15.720Z,17.10
2022-09-14T22:11:42.848Z,17.10
2022-09-14T22:14:15.221Z,17.20
2022-09-14T22:16:42.482Z,17.20
2022-09-14T22:19:24.107Z,17.20
2022-09-14T22:21:51.423Z,17.20
2022-09-14T22:24:34.858Z,17.20
2022-09-14T22:27:05.168Z,17.20
2022-09-14T22:29:31.974Z,17.20
2022-09-14T22:32:00.154Z,17.30
2022-09-14T22:34:28.422Z,17.30
2022-09-14T22:36:55.194Z,17.30
2022-09-14T22:39:21.960Z,17.30
2022-09-14T22:41:49.071Z,17.30
2022-09-14T22:44:15.840Z,17.30
2022-09-14T22:46:43.236Z,17.30
2022-09-14T22:49:10.655Z,17.30
2022-09-14T22:51:37.675Z,17.30
2022-09-14T22:54:05.171Z,17.30
2022-09-14T22:56:35.373Z,17.30
2022-09-14T22:59:07.574Z,17.30
2022-09-14T23:01:38.098Z,17.30
2022-09-14T23:04:07.798Z,17.20
2022-09-14T23:06:38.193Z,17.20
2022-09-14T23:09:06.566Z,17.30
2022-09-14T23:11:33.503Z,17.20
2022-09-14T23:14:00.302Z,17.30
2022-09-14T23:16:30.164Z,17.30
2022-09-14T23:19:02.190Z,17.30
2022-09-14T23:21:31.050Z,17.30
2022-09-14T23:24:00.283Z,17.30
2022-09-14T23:26:27.749Z,17.30
2022-09-14T23:29:11.526Z,17.30
2022-09-14T23:31:38.284Z,17.30
2022-09-14T23:34:05.739Z,17.30
2022-09-14T23:36:33.216Z,17.30
2022-09-14T23:39:00.217Z,17.30
2022-09-14T23:41:28.213Z,17.30
2022-09-14T23:43:55.297Z,17.20
2022-09-14T23:46:22.988Z,17.20
2022-09-14T23:48:50.303Z,17.20
2022-09-14T23:51:17.695Z,17.20
2022-09-14T23:53:44.809Z,17.10
2022-09-14T23:56:12.141Z,17.10
2022-09-14T23:58:39.834Z,17.20
